Flight Track Log - Related Links

Times and Time Zones

All times are in EDT time to prevent confusion due to time zone crossing. See the LOT643 flight status page for this flight to view local times or setup timezone preferences in your user account.


Time Position Orientation Groundspeed Altitude Reporting Facility
EDT Latitude Longitude Course Direction KTS MPH feet Rate Location/Type
Mon 05:09:00 PM 51.5296 21.4683 154° Southeast  Level Estimated
Mon 05:10:00 PM 51.4499 21.5299 154° Southeast  Level Estimated
Mon 05:11:00 PM 51.3702 21.5914 154° Southeast  Level Estimated
Mon 05:12:00 PM 51.2905 21.6526 154° Southeast  Level Estimated
Mon 05:13:00 PM 51.2107 21.7136 154° Southeast  Level Estimated
Mon 05:14:00 PM 51.1309 21.7744 154° Southeast  Level Estimated
Mon 05:15:00 PM 51.0511 21.8350 154° Southeast  Level Estimated
Mon 05:16:00 PM 50.9712 21.8954 155° Southeast  Level Estimated
Mon 05:17:00 PM 50.8913 21.9555 155° Southeast  Level Estimated
Mon 05:18:00 PM 50.8114 22.0155 155° Southeast  Level Estimated
Mon 05:19:00 PM 50.7314 22.0753 155° Southeast  Level Estimated
Mon 05:20:00 PM 50.6515 22.1348 155° Southeast  Level Estimated
Mon 05:21:00 PM 50.5714 22.1942 155° Southeast  Level Estimated
Mon 05:22:00 PM 50.4914 22.2534 155° Southeast  Level Estimated
Mon 05:23:00 PM 50.4113 22.3123 155° Southeast  Level Estimated
Mon 05:24:00 PM 50.3312 22.3711 155° Southeast  Level Estimated
Mon 05:25:00 PM 50.2511 22.4297 155° Southeast  Level Estimated
Mon 05:26:00 PM 50.1709 22.4880 155° Southeast  Level Estimated
Mon 05:27:00 PM 50.0907 22.5462 155° Southeast  Level Estimated
Mon 05:28:00 PM 50.0105 22.6042 155° Southeast  Level Estimated
Mon 05:29:00 PM 49.9302 22.6619 155° Southeast  Level Estimated
Mon 05:30:00 PM 49.8500 22.7195 155° Southeast  Level Estimated
Mon 05:31:00 PM 49.7697 22.7769 155° Southeast  Level Estimated
Mon 05:32:00 PM 49.6893 22.8342 155° Southeast  Level Estimated
Mon 05:33:00 PM 49.6090 22.8912 155° Southeast  Level Estimated
Mon 05:34:00 PM 49.5286 22.9480 155° Southeast  Level Estimated
Mon 05:35:00 PM 49.4482 23.0047 155° Southeast  Level Estimated
Mon 05:36:00 PM 49.3677 23.0611 155° Southeast  Level Estimated
Mon 05:37:00 PM 49.2872 23.1174 155° Southeast  Level Estimated
Mon 05:38:00 PM 49.2067 23.1735 156° South  Level Estimated
Mon 05:39:00 PM 49.1262 23.2294 156° South  Level Estimated
Mon 05:40:00 PM 49.0457 23.2851 156° South  Level Estimated
Mon 05:41:00 PM 48.9651 23.3407 156° South  Level Estimated
Mon 05:42:00 PM 48.8845 23.3960 156° South  Level Estimated
Mon 05:43:00 PM 48.8038 23.4512 156° South  Level Estimated
Mon 05:44:00 PM 48.7232 23.5062 156° South  Level Estimated
Mon 05:45:00 PM 48.6425 23.5611 156° South  Level Estimated
Mon 05:46:00 PM 48.5618 23.6157 156° South  Level Estimated
Mon 05:47:00 PM 48.4810 23.6702 156° South  Level Estimated
Mon 05:48:00 PM 48.4003 23.7245 156° South  Level Estimated
Mon 05:49:00 PM 48.3195 23.7787 156° South  Level Estimated
Mon 05:50:00 PM 48.2387 23.8327 156° South  Level Estimated
Mon 05:51:00 PM 48.1578 23.8865 156° South  Level Estimated
Mon 05:52:00 PM 48.0770 23.9401 156° South  Level Estimated
Mon 05:53:00 PM 47.9961 23.9935 156° South  Level Estimated
Mon 05:54:00 PM 47.9151 24.0469 156° South  Level Estimated
Mon 05:55:00 PM 47.8342 24.1000 156° South  Level Estimated
Mon 05:56:00 PM 47.7532 24.1529 156° South  Level Estimated
Mon 05:57:00 PM 47.6722 24.2057 156° South  Level Estimated
Mon 05:58:00 PM 47.5912 24.2584 156° South  Level Estimated
Mon 05:59:00 PM 47.5102 24.3109 156° South  Level Estimated
Mon 06:00:00 PM 47.4291 24.3632 156° South  Level Estimated
Mon 06:01:00 PM 47.3480 24.4153 156° South  Level Estimated
Mon 06:02:00 PM 47.2669 24.4673 156° South  Level Estimated
Mon 06:03:00 PM 47.1858 24.5191 157° South  Level Estimated
Mon 06:04:00 PM 47.1047 24.5708 157° South  Level Estimated
Mon 06:05:00 PM 47.0235 24.6223 157° South  Level Estimated
Mon 06:06:00 PM 46.9423 24.6737 157° South  Level Estimated
Mon 06:07:00 PM 46.8611 24.7249 157° South  Level Estimated
Mon 06:08:00 PM 46.7798 24.7759 157° South  Level Estimated
Mon 06:09:00 PM 46.6985 24.8268 157° South  Level Estimated
Mon 06:10:00 PM 46.6172 24.8776 157° South  Level Estimated
Mon 06:11:00 PM 46.5359 24.9282 157° South  Level Estimated
Mon 06:12:00 PM 46.4546 24.9786 157° South  Level Estimated
Mon 06:13:00 PM 46.3732 25.0289 157° South  Level Estimated
Mon 06:14:00 PM 46.2919 25.0790 157° South  Level Estimated
Mon 06:15:00 PM 46.2105 25.1290 157° South  Level Estimated
Mon 06:16:00 PM 46.1290 25.1789 157° South  Level Estimated
Mon 06:17:00 PM 46.0476 25.2286 157° South  Level Estimated
Mon 06:18:00 PM 45.9661 25.2781 157° South  Level Estimated
Mon 06:19:00 PM 45.8846 25.3275 157° South  Level Estimated
Mon 06:20:00 PM 45.8031 25.3768 157° South  Level Estimated
Mon 06:21:00 PM 45.7216 25.4259 157° South  Level Estimated
Mon 06:22:00 PM 45.6400 25.4749 157° South  Level Estimated
Mon 06:23:00 PM 45.5585 25.5237 157° South  Level Estimated
Mon 06:24:00 PM 45.4769 25.5724 157° South  Level Estimated
Mon 06:25:00 PM 45.3953 25.6209 157° South  Level Estimated

Login

Don't have an account? Register now (free) for customized features, flight alerts, and more!